Time;durP1;ratioP1;P1;durP2;ratioP2;P2;SDS_P1;SDS_P2;PMS_P1;PMS_P2;Temp;Humidity;BMP_temperature;BMP_pressure;BME280_temperature;BME280_humidity;BME280_pressure;Samples;Min_cycle;Max_cycle;Signal;HPM_P1;HPM_P2
2023/03/16 00:02:09;;;;;;;1.13;1.02;;;;;;;1.83;86.08;94315.91;5050917;28;20419;-78
2023/03/16 00:04:36;;;;;;;1.40;1.02;;;;;;;2.37;85.70;94407.66;5051073;28;20036;-78
2023/03/16 00:07:05;;;;;;;1.38;1.15;;;;;;;2.20;84.89;94384.97;5050559;28;20036;-78
2023/03/16 00:09:31;;;;;;;1.55;1.40;;;;;;;2.19;86.08;94380.75;5050242;28;20032;-78
2023/03/16 00:11:58;;;;;;;1.90;1.30;;;;;;;2.32;85.42;94430.13;5050935;28;20391;-78
2023/03/16 00:14:24;;;;;;;2.25;1.20;;;;;;;1.89;85.26;94370.66;5051060;28;20065;-78
2023/03/16 00:16:50;;;;;;;1.45;1.13;;;;;;;1.96;85.93;94375.72;5033191;28;20021;-78
2023/03/16 00:19:15;;;;;;;1.73;1.30;;;;;;;1.76;85.86;94364.94;5016686;28;20037;-78
2023/03/16 00:21:40;;;;;;;1.83;1.52;;;;;;;2.30;86.17;94423.53;5048869;28;20643;-78
2023/03/16 00:24:06;;;;;;;1.30;1.20;;;;;;;1.75;85.69;94348.47;5031921;28;20025;-78
2023/03/16 00:26:31;;;;;;;1.00;0.90;;;;;;;1.83;85.31;94370.81;5050357;28;20025;-78
2023/03/16 00:28:57;;;;;;;1.55;1.45;;;;;;;1.50;85.56;94327.97;5050987;28;20104;-78
2023/03/16 00:31:23;;;;;;;3.83;1.27;;;;;;;2.01;86.43;94425.47;5051487;28;20033;-78
2023/03/16 00:33:49;;;;;;;1.80;1.30;;;;;;;1.95;87.03;94423.81;5033170;28;20033;-78
2023/03/16 00:36:15;;;;;;;2.38;1.85;;;;;;;2.05;85.58;94426.59;5050897;28;20079;-78
2023/03/16 00:38:45;;;;;;;2.70;1.60;;;;;;;1.89;85.72;94424.78;5033280;28;20025;-79
2023/03/16 00:41:14;;;;;;;2.17;1.58;;;;;;;1.09;85.08;94338.75;5033328;28;20039;-78
2023/03/16 00:43:40;;;;;;;2.28;1.38;;;;;;;1.10;85.28;94342.97;5050660;28;20060;-78
2023/03/16 00:46:12;;;;;;;1.83;1.33;;;;;;;1.76;86.76;94449.38;5031404;28;20462;-78
2023/03/16 00:48:41;;;;;;;2.38;1.80;;;;;;;1.39;87.46;94362.00;5033208;28;20415;-78
2023/03/16 00:51:13;;;;;;;3.85;2.65;;;;;;;1.72;88.14;94421.34;5051049;28;20045;-78
2023/03/16 00:53:40;;;;;;;1.48;1.35;;;;;;;1.54;87.86;94373.50;5032776;28;20059;-78
2023/03/16 00:56:06;;;;;;;1.58;1.30;;;;;;;1.84;87.41;94414.22;5032594;28;20025;-78
2023/03/16 00:58:34;;;;;;;1.77;1.45;;;;;;;1.81;87.34;94412.88;5050906;28;20104;-78
2023/03/16 01:01:05;;;;;;;3.67;1.63;;;;;;;1.64;88.10;94382.53;5050505;28;20045;-78
2023/03/16 01:03:31;;;;;;;1.90;1.45;;;;;;;1.65;88.08;94356.16;5051239;28;20115;-78
2023/03/16 01:06:00;;;;;;;2.20;2.00;;;;;;;2.16;87.59;94435.38;5032454;28;20080;-78
2023/03/16 01:08:29;;;;;;;1.67;1.50;;;;;;;1.79;86.65;94388.78;5050730;28;20184;-78
2023/03/16 01:10:54;;;;;;;2.22;1.77;;;;;;;2.09;86.42;94446.00;5031091;28;20033;-78
2023/03/16 01:13:21;;;;;;;1.52;1.40;;;;;;;1.21;87.28;94339.50;5050223;28;20360;-78
2023/03/16 01:15:49;;;;;;;2.78;1.58;;;;;;;1.22;86.76;94353.38;5050782;28;20033;-78
2023/03/16 01:18:15;;;;;;;2.90;2.00;;;;;;;1.45;87.71;94374.13;5049864;28;20045;-78
2023/03/16 01:20:47;;;;;;;1.60;1.50;;;;;;;0.96;87.34;94294.69;5028984;28;20603;-78
2023/03/16 01:23:13;;;;;;;1.90;1.70;;;;;;;1.89;88.02;94435.22;5032124;28;20028;-78
2023/03/16 01:25:38;;;;;;;1.77;1.40;;;;;;;1.91;87.36;94449.63;5050205;28;20040;-78
2023/03/16 01:28:04;;;;;;;2.67;1.52;;;;;;;1.51;86.80;94388.88;5048866;28;20078;-78
2023/03/16 01:30:29;;;;;;;3.20;1.80;;;;;;;1.88;87.66;94447.50;5032034;28;20029;-77
2023/03/16 01:32:54;;;;;;;1.90;1.38;;;;;;;1.32;85.96;94359.53;5031195;28;20182;-77
2023/03/16 01:35:20;;;;;;;1.17;1.08;;;;;;;1.30;86.33;94376.50;5049096;28;20036;-78
2023/03/16 01:37:46;;;;;;;0.95;0.95;;;;;;;1.08;85.17;94392.81;5050162;28;20112;-78
2023/03/16 01:40:12;;;;;;;1.52;1.10;;;;;;;1.46;85.48;94474.97;5048935;28;20032;-78
2023/03/16 01:42:46;;;;;;;2.42;1.30;;;;;;;1.43;86.72;94462.41;5065039;28;20033;-78
2023/03/16 01:45:59;;;;;;;1.10;1.00;;;;;;;1.48;86.41;94483.38;5031756;28;20029;-77
2023/03/16 01:48:28;;;;;;;1.33;0.98;;;;;;;1.44;85.71;94479.69;5014789;28;20057;-78
2023/03/16 01:50:55;;;;;;;1.75;0.95;;;;;;;1.39;85.20;94469.91;5065256;28;20503;-78
2023/03/16 01:53:23;;;;;;;3.28;0.70;;;;;;;1.30;85.07;94488.81;5050233;28;20052;-78
2023/03/16 01:55:50;;;;;;;1.27;0.95;;;;;;;0.90;85.62;94407.88;5050115;28;20021;-78
2023/03/16 01:58:16;;;;;;;1.00;0.82;;;;;;;0.84;85.60;94403.59;5050016;28;20466;-78
2023/03/16 02:00:44;;;;;;;1.45;1.00;;;;;;;1.07;86.62;94426.97;5065043;28;20142;-79
2023/03/16 02:03:15;;;;;;;1.05;0.95;;;;;;;1.07;86.08;94445.25;5065226;28;20033;-78
2023/03/16 02:05:51;;;;;;;1.35;1.10;;;;;;;1.01;86.31;94420.09;5064745;28;20051;-77
2023/03/16 02:08:18;;;;;;;1.13;0.85;;;;;;;0.73;85.73;94392.16;5049517;28;20037;-77
2023/03/16 02:10:44;;;;;;;2.13;1.05;;;;;;;1.31;85.45;94526.94;5049531;28;20033;-77
2023/03/16 02:13:10;;;;;;;1.38;1.00;;;;;;;0.11;86.12;94321.50;5049650;28;20506;-77
2023/03/16 02:15:37;;;;;;;1.50;0.93;;;;;;;0.93;86.95;94423.84;5049809;28;20033;-77
2023/03/16 02:18:03;;;;;;;1.42;1.10;;;;;;;1.30;87.64;94457.47;5049544;28;20115;-77
2023/03/16 02:20:34;;;;;;;0.88;0.80;;;;;;;1.33;85.96;94496.16;5049943;28;20108;-75
2023/03/16 02:23:01;;;;;;;1.23;1.08;;;;;;;1.27;87.26;94481.44;5049965;28;20143;-76
2023/03/16 02:25:46;;;;;;;1.42;1.10;;;;;;;1.27;87.39;94495.28;5050024;28;20090;-75
2023/03/16 02:28:28;;;;;;;1.60;1.15;;;;;;;0.60;87.55;94406.25;5049377;28;20534;-76
2023/03/16 02:30:54;;;;;;;1.20;1.10;;;;;;;0.82;87.65;94442.16;5065117;28;20029;-76
2023/03/16 02:33:20;;;;;;;1.10;1.00;;;;;;;1.16;88.31;94507.34;5064814;28;20179;-75
2023/03/16 02:35:45;;;;;;;1.40;1.20;;;;;;;1.06;88.87;94503.75;5049904;28;20159;-76
2023/03/16 02:38:11;;;;;;;1.60;1.20;;;;;;;0.74;88.82;94458.97;5064978;28;20209;-75
2023/03/16 02:40:37;;;;;;;1.33;1.15;;;;;;;1.16;89.72;94527.44;5049783;28;20025;-77
2023/03/16 02:43:08;;;;;;;3.60;2.35;;;;;;;0.95;90.13;94483.69;5049539;28;20059;-77
2023/03/16 02:45:51;;;;;;;1.77;1.30;;;;;;;1.12;89.57;94531.56;5064408;28;20037;-77
2023/03/16 02:48:31;;;;;;;1.55;1.42;;;;;;;0.18;90.26;94381.34;5049355;28;20157;-76
2023/03/16 02:50:56;;;;;;;1.98;1.50;;;;;;;0.49;89.83;94446.19;5065277;28;20033;-77
2023/03/16 02:53:22;;;;;;;1.38;1.23;;;;;;;0.50;90.79;94455.59;5053432;28;20197;-77
2023/03/16 02:55:47;;;;;;;1.27;1.17;;;;;;;0.56;90.27;94449.47;5053343;28;20408;-77
2023/03/16 02:58:14;;;;;;;1.55;1.45;;;;;;;0.90;90.62;94522.75;5053096;28;20036;-77
2023/03/16 03:00:41;;;;;;;1.70;1.60;;;;;;;0.40;90.76;94439.72;5052922;28;20053;-77
2023/03/16 03:03:08;;;;;;;1.20;1.10;;;;;;;0.82;90.76;94526.50;5034824;28;20025;-77
2023/03/16 03:05:34;;;;;;;1.48;1.38;;;;;;;0.67;91.60;94521.75;5068081;28;20033;-77
2023/03/16 03:08:00;;;;;;;3.13;1.73;;;;;;;0.77;90.64;94528.97;5052500;28;20048;-77
2023/03/16 03:10:25;;;;;;;2.08;1.73;;;;;;;0.41;91.33;94482.25;5052857;28;20051;-77
2023/03/16 03:12:50;;;;;;;2.45;1.70;;;;;;;0.17;91.48;94450.97;5067994;28;20047;-77
2023/03/16 03:15:17;;;;;;;3.30;1.63;;;;;;;0.45;91.39;94473.78;5053084;28;20041;-77
2023/03/16 03:17:43;;;;;;;1.60;1.30;;;;;;;0.45;90.91;94505.06;5052944;28;20040;-77
2023/03/16 03:20:15;;;;;;;1.50;1.38;;;;;;;-0.07;91.07;94415.47;5067724;28;20037;-77
2023/03/16 03:22:41;;;;;;;1.55;1.42;;;;;;;0.72;90.72;94547.16;5068102;28;20037;-77
2023/03/16 03:25:07;;;;;;;1.55;1.40;;;;;;;0.82;91.47;94551.81;5052759;28;20505;-77
2023/03/16 03:27:33;;;;;;;1.52;1.10;;;;;;;-0.46;90.66;94393.47;5067743;28;20522;-77
2023/03/16 03:29:58;;;;;;;1.08;1.00;;;;;;;0.43;90.54;94514.13;5050123;28;20043;-77
2023/03/16 03:32:24;;;;;;;3.22;1.35;;;;;;;0.55;91.08;94549.63;5052441;28;20056;-78
2023/03/16 03:34:49;;;;;;;0.90;0.90;;;;;;;0.00;90.17;94469.06;5052452;28;20033;-77
2023/03/16 03:37:16;;;;;;;3.35;1.00;;;;;;;-0.17;90.54;94438.69;5034650;28;20052;-78
2023/03/16 03:39:41;;;;;;;1.10;1.00;;;;;;;0.49;90.68;94565.41;5034521;28;20372;-77
2023/03/16 03:42:07;;;;;;;1.17;1.00;;;;;;;-0.04;90.86;94467.94;5052170;28;20041;-77
2023/03/16 03:44:35;;;;;;;2.42;1.10;;;;;;;0.47;90.77;94576.06;5052397;28;20076;-77
2023/03/16 03:47:01;;;;;;;1.30;1.05;;;;;;;0.01;90.91;94508.97;5051061;28;20496;-77
2023/03/16 03:49:26;;;;;;;1.35;1.10;;;;;;;-0.27;90.33;94460.09;5051991;28;20047;-77
2023/03/16 03:51:52;;;;;;;1.83;1.02;;;;;;;0.21;90.69;94532.94;5050648;28;20037;-77
2023/03/16 03:54:17;;;;;;;1.40;1.10;;;;;;;0.33;90.73;94559.81;5033926;28;20033;-77
2023/03/16 03:56:42;;;;;;;1.60;1.00;;;;;;;0.45;90.44;94591.16;5052123;28;20067;-77
2023/03/16 03:59:08;;;;;;;1.88;1.20;;;;;;;0.46;90.60;94590.13;5051981;28;20117;-77
2023/03/16 04:01:33;;;;;;;2.28;0.80;;;;;;;0.16;90.30;94539.84;5052145;28;20343;-77
2023/03/16 04:03:59;;;;;;;1.25;1.02;;;;;;;-0.30;89.58;94483.19;5032847;28;20041;-77
2023/03/16 04:06:25;;;;;;;1.15;1.05;;;;;;;-0.15;90.30;94504.41;5051570;28;20040;-78
2023/03/16 04:08:52;;;;;;;2.63;2.25;;;;;;;0.41;90.43;94597.03;5051946;28;20041;-77
2023/03/16 04:11:18;;;;;;;1.10;1.00;;;;;;;-0.27;90.61;94485.34;5033861;28;20041;-78
2023/03/16 04:13:43;;;;;;;1.45;1.00;;;;;;;0.07;89.98;94549.03;5033428;28;20043;-77
2023/03/16 04:16:09;;;;;;;2.22;1.35;;;;;;;0.23;90.37;94571.84;5051540;28;20112;-78
2023/03/16 04:18:37;;;;;;;1.13;1.00;;;;;;;-0.16;90.04;94519.28;5051436;28;20581;-77
2023/03/16 04:21:11;;;;;;;2.63;1.33;;;;;;;0.44;91.29;94588.78;5033591;28;20044;-77
2023/03/16 04:23:37;;;;;;;3.55;1.50;;;;;;;0.17;90.98;94559.69;5051557;28;20112;-77
2023/03/16 04:26:04;;;;;;;2.08;1.25;;;;;;;-0.03;90.49;94523.50;5051147;28;20128;-78
2023/03/16 04:28:31;;;;;;;3.88;1.33;;;;;;;0.45;90.17;94600.81;5051623;28;20067;-77
2023/03/16 04:31:04;;;;;;;3.40;1.63;;;;;;;0.31;90.74;94611.41;5049993;28;20123;-77
2023/03/16 04:33:31;;;;;;;1.92;1.10;;;;;;;0.12;89.95;94560.38;5033275;28;20039;-78
2023/03/16 04:35:57;;;;;;;2.05;1.60;;;;;;;0.32;90.36;94594.75;5051030;28;20079;-78
2023/03/16 04:38:22;;;;;;;1.35;1.10;;;;;;;0.08;89.19;94563.66;5051177;28;20040;-78
2023/03/16 04:40:48;;;;;;;1.90;1.60;;;;;;;-0.06;89.77;94548.19;5033129;28;20400;-78
2023/03/16 04:43:13;;;;;;;2.47;1.80;;;;;;;-0.42;89.72;94493.59;5049920;28;20495;-78
2023/03/16 04:45:39;;;;;;;2.20;1.40;;;;;;;0.46;89.69;94634.47;5051213;28;20140;-77
2023/03/16 04:48:04;;;;;;;3.00;1.88;;;;;;;-0.19;90.06;94514.50;5050951;28;20102;-77
2023/03/16 04:50:30;;;;;;;2.72;1.73;;;;;;;0.51;90.00;94632.00;5049577;28;20047;-77
2023/03/16 04:52:55;;;;;;;1.73;1.27;;;;;;;0.58;90.22;94644.94;5049502;28;20033;-78
2023/03/16 04:55:21;;;;;;;3.72;1.50;;;;;;;0.15;89.29;94575.56;5050541;28;20544;-78
2023/03/16 04:57:47;;;;;;;2.30;1.50;;;;;;;-0.05;88.44;94567.22;5050496;28;20078;-77
2023/03/16 05:00:19;;;;;;;2.22;1.52;;;;;;;-0.12;88.83;94553.50;5050134;28;20053;-77
2023/03/16 05:02:46;;;;;;;1.98;1.33;;;;;;;0.33;89.14;94629.44;5049741;28;20098;-78
2023/03/16 05:05:14;;;;;;;6.47;2.38;;;;;;;0.25;89.08;94629.78;5047793;28;20036;-77
2023/03/16 05:07:40;;;;;;;4.85;1.35;;;;;;;-0.13;88.63;94570.94;5044011;28;20413;-78
2023/03/16 05:10:07;;;;;;;1.35;1.00;;;;;;;0.19;88.87;94615.03;5043122;28;20051;-78
2023/03/16 05:12:33;;;;;;;2.22;1.20;;;;;;;-0.23;88.79;94562.09;5049046;28;20044;-77
2023/03/16 05:14:58;;;;;;;2.97;1.40;;;;;;;0.40;88.20;94666.66;5040187;28;20036;-78
2023/03/16 05:17:24;;;;;;;1.88;1.60;;;;;;;-0.18;87.94;94583.84;5045636;28;20021;-77
2023/03/16 05:19:49;;;;;;;3.83;2.22;;;;;;;-0.76;88.77;94497.63;5037864;28;20048;-77
2023/03/16 05:22:15;;;;;;;2.95;1.80;;;;;;;-0.49;88.32;94534.56;5037223;28;20091;-77
2023/03/16 05:24:40;;;;;;;1.63;1.30;;;;;;;-0.16;88.00;94612.31;5038423;28;20258;-77
2023/03/16 05:27:15;;;;;;;2.55;1.48;;;;;;;-0.27;88.29;94573.94;5053062;22;20118;-85
2023/03/16 05:29:53;;;;;;;2.35;1.52;;;;;;;-2.01;87.81;94325.66;5016027;28;20101;-85
2023/03/16 05:32:18;;;;;;;6.72;1.55;;;;;;;-3.07;87.31;94166.78;5026087;22;20061;-77
2023/03/16 05:34:44;;;;;;;2.10;1.20;;;;;;;0.01;88.51;94631.50;5014090;28;20060;-77
2023/03/16 05:37:09;;;;;;;2.45;2.05;;;;;;;-0.20;89.17;94565.03;5018732;28;20036;-77
2023/03/16 05:39:35;;;;;;;3.20;1.50;;;;;;;-0.24;88.09;94568.31;5020053;28;20037;-79
2023/03/16 05:42:00;;;;;;;3.25;1.58;;;;;;;0.46;88.13;94694.47;5022307;28;20045;-78
2023/03/16 05:44:26;;;;;;;2.65;1.40;;;;;;;0.22;88.15;94658.91;5023768;28;20041;-78
2023/03/16 05:46:51;;;;;;;2.35;1.40;;;;;;;0.02;88.99;94614.84;5023842;28;20116;-77
2023/03/16 05:49:17;;;;;;;3.58;1.67;;;;;;;0.31;88.14;94683.66;5005902;28;20044;-77
2023/03/16 05:51:42;;;;;;;2.25;1.75;;;;;;;-0.06;88.37;94625.59;5022283;28;20041;-78
2023/03/16 05:54:07;;;;;;;2.35;1.63;;;;;;;-0.31;88.23;94586.63;5016333;28;20497;-78
2023/03/16 05:56:33;;;;;;;1.90;1.58;;;;;;;0.37;89.04;94688.78;4999810;28;20163;-79
2023/03/16 05:58:59;;;;;;;5.45;1.77;;;;;;;0.52;89.30;94713.69;5005588;28;20033;-77
2023/03/16 06:01:25;;;;;;;4.00;1.73;;;;;;;0.51;88.70;94712.09;5008850;28;20124;-77
2023/03/16 06:03:51;;;;;;;4.07;1.95;;;;;;;-0.12;89.82;94618.66;5009385;28;20550;-80
2023/03/16 06:06:19;;;;;;;2.80;1.67;;;;;;;-0.15;89.49;94640.72;5002362;28;20060;-79
2023/03/16 06:08:46;;;;;;;5.65;2.15;;;;;;;0.46;89.75;94719.78;5012135;28;20136;-84
2023/03/16 06:11:11;;;;;;;1.83;1.63;;;;;;;-0.27;89.09;94626.06;5018382;28;20242;-81
2023/03/16 06:13:38;;;;;;;3.75;1.58;;;;;;;-0.06;88.63;94665.47;5015590;28;20396;-80
2023/03/16 06:16:05;;;;;;;3.88;1.98;;;;;;;-0.44;89.45;94586.78;5020191;28;20092;-80
2023/03/16 06:18:31;;;;;;;3.42;1.80;;;;;;;0.47;89.26;94740.41;4997260;28;20115;-80
2023/03/16 06:20:56;;;;;;;4.70;2.20;;;;;;;0.28;89.30;94712.78;5019244;28;20071;-81
2023/03/16 06:23:21;;;;;;;4.38;2.15;;;;;;;-0.46;89.34;94581.03;5014227;28;20037;-79
2023/03/16 06:25:47;;;;;;;4.45;2.42;;;;;;;0.19;90.23;94665.38;5009481;28;20045;-81
2023/03/16 06:28:13;;;;;;;7.07;2.75;;;;;;;0.41;89.31;94699.56;5019148;28;20028;-80
2023/03/16 06:30:39;;;;;;;3.55;2.20;;;;;;;0.04;88.55;94628.47;5001709;28;20041;-81
2023/03/16 06:33:05;;;;;;;10.48;3.92;;;;;;;0.11;88.45;94633.59;5018608;28;20548;-80
2023/03/16 06:35:30;;;;;;;3.17;2.10;;;;;;;0.91;87.86;94764.50;5012429;28;20131;-80
2023/03/16 06:37:56;;;;;;;6.63;2.33;;;;;;;0.12;86.78;94629.97;5012125;28;20193;-80
2023/03/16 06:40:21;;;;;;;2.10;1.77;;;;;;;0.23;87.36;94655.28;5002830;28;20041;-80
2023/03/16 06:42:47;;;;;;;2.90;1.90;;;;;;;0.39;85.45;94678.91;5003386;28;20516;-78
2023/03/16 06:45:14;;;;;;;4.57;2.13;;;;;;;0.89;86.21;94764.72;5011283;28;20032;-78
2023/03/16 06:47:39;;;;;;;3.65;1.95;;;;;;;-0.53;85.60;94567.25;4995479;28;20144;-77
2023/03/16 06:50:05;;;;;;;3.28;2.00;;;;;;;0.05;85.71;94653.53;5012871;28;20568;-79
2023/03/16 06:52:31;;;;;;;5.05;2.65;;;;;;;0.24;85.72;94677.72;5013893;28;20037;-80
2023/03/16 06:54:57;;;;;;;2.65;2.42;;;;;;;0.35;86.17;94695.25;5018863;28;20034;-80
2023/03/16 06:57:23;;;;;;;2.45;1.63;;;;;;;0.11;85.00;94683.13;5015126;28;20034;-80
2023/03/16 06:59:49;;;;;;;3.17;1.73;;;;;;;0.17;84.72;94685.63;5016343;28;20041;-80
2023/03/16 07:02:15;;;;;;;4.95;2.42;;;;;;;0.21;86.00;94678.19;5023056;28;20095;-79
2023/03/16 07:04:41;;;;;;;3.38;1.83;;;;;;;0.17;85.38;94671.81;5022550;28;20036;-79
2023/03/16 07:07:07;;;;;;;3.63;2.08;;;;;;;0.97;86.14;94795.75;4999286;28;20480;-80
2023/03/16 07:09:33;;;;;;;7.85;2.40;;;;;;;1.03;86.22;94809.72;5019082;28;20026;-80
2023/03/16 07:11:58;;;;;;;3.28;2.22;;;;;;;0.62;85.71;94753.84;5019387;28;20044;-81
2023/03/16 07:14:25;;;;;;;5.13;2.42;;;;;;;0.18;85.54;94702.09;5019014;28;20100;-80
2023/03/16 07:16:51;;;;;;;3.13;2.35;;;;;;;0.94;87.39;94796.19;5017546;28;20092;-79
2023/03/16 07:19:17;;;;;;;5.00;2.58;;;;;;;0.66;86.94;94760.25;5020074;28;20124;-80
2023/03/16 07:21:43;;;;;;;5.93;2.55;;;;;;;0.56;86.43;94754.75;5012162;28;20417;-83
2023/03/16 07:24:09;;;;;;;4.30;2.55;;;;;;;0.14;86.30;94665.25;4996778;28;20038;-84
2023/03/16 07:26:36;;;;;;;3.95;2.47;;;;;;;0.92;86.04;94785.16;5000664;28;20060;-80
2023/03/16 07:29:05;;;;;;;5.60;2.75;;;;;;;0.73;86.61;94766.16;5018904;28;20064;-82
2023/03/16 07:31:31;;;;;;;4.60;2.60;;;;;;;0.92;86.25;94834.75;5014575;28;20052;-80
2023/03/16 07:33:57;;;;;;;4.45;2.70;;;;;;;0.89;87.02;94816.16;5018567;28;20041;-81
2023/03/16 07:36:22;;;;;;;6.15;2.80;;;;;;;0.29;86.55;94730.03;4999906;28;20037;-80
2023/03/16 07:38:48;;;;;;;3.67;2.65;;;;;;;0.80;86.00;94809.66;4985800;28;21407;-80
2023/03/16 07:41:13;;;;;;;8.90;3.10;;;;;;;1.10;86.38;94852.22;5011006;28;20477;-81
2023/03/16 07:43:39;;;;;;;4.60;2.72;;;;;;;1.10;85.87;94849.59;5017853;28;20029;-79
2023/03/16 07:46:05;;;;;;;4.65;2.63;;;;;;;1.16;85.49;94843.47;5015218;28;20422;-80
2023/03/16 07:48:31;;;;;;;4.13;2.65;;;;;;;0.66;84.88;94743.78;5000986;28;20041;-79
2023/03/16 07:50:56;;;;;;;5.70;3.20;;;;;;;1.27;85.73;94824.44;5015158;28;20490;-80
2023/03/16 07:53:22;;;;;;;4.70;2.80;;;;;;;0.86;85.03;94731.22;5016407;28;20063;-80
2023/03/16 07:55:47;;;;;;;3.45;2.00;;;;;;;0.97;82.99;94782.69;4996675;28;20172;-80
2023/03/16 07:58:13;;;;;;;3.38;2.40;;;;;;;0.96;82.85;94796.75;5005175;28;20047;-80
2023/03/16 08:00:39;;;;;;;2.83;2.30;;;;;;;1.23;83.52;94802.38;5015619;28;20511;-80
2023/03/16 08:03:05;;;;;;;7.93;2.53;;;;;;;1.02;85.63;94727.97;5016628;28;20041;-79
2023/03/16 08:05:33;;;;;;;4.07;2.40;;;;;;;1.13;83.64;94749.91;5003403;28;20037;-80
2023/03/16 08:08:00;;;;;;;5.53;2.20;;;;;;;0.87;83.09;94738.03;4996077;28;20199;-80
2023/03/16 08:10:26;;;;;;;5.15;2.60;;;;;;;1.03;82.64;94741.81;4992841;28;20046;-79
2023/03/16 08:12:51;;;;;;;3.25;2.15;;;;;;;1.27;81.87;94792.28;5005976;28;20052;-79
2023/03/16 08:15:18;;;;;;;5.22;1.92;;;;;;;1.45;82.23;94845.25;5013984;28;20050;-79
2023/03/16 08:17:44;;;;;;;2.47;1.63;;;;;;;0.80;81.70;94770.50;4993200;28;20051;-80
2023/03/16 08:20:13;;;;;;;4.45;2.50;;;;;;;1.27;83.54;94811.38;5013831;28;20038;-80
2023/03/16 08:22:39;;;;;;;5.05;2.58;;;;;;;1.42;83.01;94840.47;5015499;28;20040;-79
2023/03/16 08:25:09;;;;;;;3.25;2.00;;;;;;;1.62;82.82;94874.13;4998147;28;20751;-79
2023/03/16 08:27:36;;;;;;;3.47;2.30;;;;;;;1.21;82.62;94804.44;4998793;28;20745;-79
2023/03/16 08:30:05;;;;;;;3.50;2.13;;;;;;;0.65;83.64;94731.75;5010670;28;20038;-79
2023/03/16 08:32:31;;;;;;;3.83;1.92;;;;;;;0.93;82.76;94799.81;5016019;28;20139;-79
2023/03/16 08:34:57;;;;;;;10.50;2.65;;;;;;;0.98;83.63;94776.47;5014875;28;20037;-79
2023/03/16 08:37:23;;;;;;;4.80;2.70;;;;;;;0.75;82.98;94753.69;5013319;28;20041;-79
2023/03/16 08:39:50;;;;;;;6.90;2.75;;;;;;;1.10;82.12;94792.94;5010353;28;20095;-79
2023/03/16 08:42:16;;;;;;;5.78;2.90;;;;;;;1.00;82.39;94776.22;5010530;28;20094;-80
2023/03/16 08:44:42;;;;;;;4.40;2.65;;;;;;;1.70;82.71;94865.97;4991379;28;20045;-80
2023/03/16 08:47:09;;;;;;;2.33;1.75;;;;;;;0.95;80.08;94758.63;5014304;28;20025;-84
2023/03/16 08:49:35;;;;;;;3.13;2.20;;;;;;;0.90;81.79;94757.69;5009238;28;20032;-81
2023/03/16 08:52:01;;;;;;;4.75;1.90;;;;;;;1.28;80.34;94799.09;4994871;28;20124;-81
2023/03/16 08:54:26;;;;;;;4.18;2.33;;;;;;;0.99;81.28;94735.47;5015458;28;20541;-79
2023/03/16 08:56:52;;;;;;;3.53;2.00;;;;;;;1.16;79.13;94778.97;5017165;28;20104;-80
2023/03/16 08:59:18;;;;;;;3.33;1.95;;;;;;;1.83;80.37;94857.91;5008123;28;20041;-79
2023/03/16 09:01:45;;;;;;;3.20;2.25;;;;;;;1.80;80.28;94857.56;5014982;28;20038;-80
2023/03/16 09:04:11;;;;;;;4.72;2.75;;;;;;;0.88;78.90;94710.94;5016829;28;20676;-81
2023/03/16 09:06:38;;;;;;;4.10;2.92;;;;;;;1.17;79.88;94724.91;5015030;28;20048;-79
2023/03/16 09:09:03;;;;;;;4.53;2.17;;;;;;;1.35;78.15;94764.03;5014900;28;20438;-80
2023/03/16 09:11:32;;;;;;;3.03;1.63;;;;;;;2.08;77.51;94938.78;5016057;28;20048;-80
2023/03/16 09:13:58;;;;;;;3.60;2.10;;;;;;;1.37;77.04;94808.22;5016280;28;20033;-80
2023/03/16 09:16:26;;;;;;;5.15;2.33;;;;;;;1.91;78.62;94914.28;5011685;28;20208;-83
2023/03/16 09:18:52;;;;;;;4.55;2.47;;;;;;;1.26;78.16;94775.81;5010934;28;20044;-81
2023/03/16 09:21:22;;;;;;;2.28;1.85;;;;;;;1.64;77.04;94873.91;5011928;28;20542;-82
2023/03/16 09:23:47;;;;;;;4.82;2.40;;;;;;;1.66;76.88;94871.88;4997386;28;20068;-80
2023/03/16 09:26:14;;;;;;;5.20;2.00;;;;;;;1.14;76.39;94783.63;5017428;28;20510;-80
2023/03/16 09:28:40;;;;;;;2.70;1.67;;;;;;;1.51;76.15;94852.22;5013559;28;20124;-79
2023/03/16 09:31:07;;;;;;;3.10;2.10;;;;;;;1.82;76.88;94911.25;5011405;28;20029;-79
2023/03/16 09:33:34;;;;;;;3.47;2.60;;;;;;;1.84;78.97;94895.31;5007869;28;20061;-78
2023/03/16 09:36:01;;;;;;;4.53;2.35;;;;;;;1.92;78.68;94898.38;4994655;28;20095;-78
2023/03/16 09:38:27;;;;;;;6.78;3.40;;;;;;;1.71;78.92;94851.09;5013684;28;20053;-78
2023/03/16 09:41:03;;;;;;;3.67;2.60;;;;;;;2.06;79.05;94906.03;4996803;28;20156;-79
2023/03/16 09:43:53;;;;;;;4.63;2.88;;;;;;;1.88;77.23;94881.56;5009745;28;20522;-80
2023/03/16 09:46:23;;;;;;;4.00;2.38;;;;;;;2.03;77.37;94902.03;5011673;28;20041;-84
2023/03/16 09:48:49;;;;;;;4.55;2.50;;;;;;;1.01;77.42;94730.81;5011677;28;20602;-78
2023/03/16 09:51:33;;;;;;;5.00;2.97;;;;;;;1.76;79.12;94827.66;4974794;28;20056;-79
2023/03/16 09:54:02;;;;;;;5.05;3.20;;;;;;;1.94;78.41;94875.44;5009226;28;20033;-78
2023/03/16 09:56:35;;;;;;;4.10;2.55;;;;;;;1.20;77.56;94765.47;5011246;28;20468;-78
2023/03/16 09:59:01;;;;;;;3.92;2.72;;;;;;;1.37;77.65;94808.22;5015723;28;20029;-78
2023/03/16 10:01:42;;;;;;;3.15;2.33;;;;;;;2.02;79.44;94928.41;5010356;28;20041;-79
2023/03/16 10:04:58;;;;;;;4.75;3.13;;;;;;;1.75;80.94;94868.72;5014909;28;21050;-77
2023/03/16 10:08:00;;;;;;;5.50;2.50;;;;;;;1.76;81.15;94888.59;5009744;28;20053;-79
2023/03/16 10:11:04;;;;;;;7.80;3.13;;;;;;;1.70;79.99;94886.09;5016702;28;20128;-79
2023/03/16 10:13:37;;;;;;;5.97;3.78;;;;;;;1.76;80.90;94895.63;5013202;28;20045;-79
2023/03/16 10:16:18;;;;;;;5.00;3.83;;;;;;;1.82;80.35;94869.41;5017300;28;20041;-79
2023/03/16 10:18:47;;;;;;;7.15;3.97;;;;;;;1.65;79.04;94852.00;5021046;28;20041;-78
2023/03/16 10:21:17;;;;;;;6.50;3.67;;;;;;;2.17;79.85;94907.84;5021232;28;20484;-79
2023/03/16 10:23:48;;;;;;;7.13;4.05;;;;;;;2.15;79.58;94892.38;5019412;28;20037;-82
2023/03/16 10:26:21;;;;;;;6.93;3.92;;;;;;;2.29;78.06;94911.25;5020617;28;20133;-79
2023/03/16 10:28:47;;;;;;;5.55;3.35;;;;;;;1.91;78.07;94835.84;5016901;28;20063;-81
2023/03/16 10:31:15;;;;;;;3.53;2.60;;;;;;;1.46;76.24;94786.72;5020809;28;20037;-81
2023/03/16 10:33:41;;;;;;;4.25;3.17;;;;;;;1.65;76.51;94818.00;5010017;28;20584;-80
2023/03/16 10:36:23;;;;;;;5.75;3.33;;;;;;;2.25;76.42;94913.53;5019356;28;20068;-81
2023/03/16 10:38:56;;;;;;;6.97;4.18;;;;;;;2.41;78.45;94912.06;5018020;28;20041;-80
2023/03/16 10:41:28;;;;;;;6.38;3.40;;;;;;;2.35;76.90;94912.97;5019460;28;20094;-79
2023/03/16 10:43:56;;;;;;;7.47;3.83;;;;;;;2.25;77.25;94891.81;5020885;28;20127;-78
2023/03/16 10:46:26;;;;;;;10.43;3.90;;;;;;;2.25;76.67;94876.09;5018079;28;20057;-78
2023/03/16 10:48:58;;;;;;;4.43;3.03;;;;;;;2.47;76.40;94920.81;5001120;28;20033;-78
2023/03/16 10:51:26;;;;;;;5.90;3.75;;;;;;;1.75;76.59;94805.97;4999402;28;20038;-78
2023/03/16 10:53:53;;;;;;;5.90;3.53;;;;;;;2.48;77.83;94914.53;5018403;28;20037;-78
2023/03/16 10:56:24;;;;;;;6.75;4.30;;;;;;;2.53;78.14;94914.66;5000671;28;20628;-78
2023/03/16 10:58:50;;;;;;;8.30;4.88;;;;;;;1.89;78.23;94828.25;5013445;28;20459;-78
2023/03/16 11:01:25;;;;;;;8.13;4.07;;;;;;;2.50;77.48;94934.25;5017506;28;20175;-78
2023/03/16 11:03:54;;;;;;;6.93;2.97;;;;;;;2.27;76.01;94906.25;5012890;28;20048;-79
2023/03/16 11:06:31;;;;;;;4.05;3.10;;;;;;;2.14;76.24;94869.84;4999300;28;20030;-79
2023/03/16 11:09:07;;;;;;;9.32;3.50;;;;;;;1.98;76.01;94851.44;5016796;28;20041;-79
2023/03/16 11:11:34;;;;;;;6.80;3.72;;;;;;;2.54;75.69;94924.09;5004884;28;20174;-79
2023/03/16 11:14:03;;;;;;;8.55;3.53;;;;;;;2.15;75.52;94873.25;5004279;28;20037;-79
2023/03/16 11:16:53;;;;;;;9.20;3.85;;;;;;;2.12;74.72;94856.22;5020445;28;20245;-79
2023/03/16 11:19:50;;;;;;;6.72;4.38;;;;;;;2.51;75.95;94901.00;5015944;28;20580;-80
2023/03/16 11:22:18;;;;;;;11.02;5.65;;;;;;;2.71;75.32;94911.91;4982989;28;20060;-78
2023/03/16 11:25:11;;;;;;;14.38;4.45;;;;;;;2.03;74.57;94797.41;4997206;28;20144;-79
2023/03/16 11:28:00;;;;;;;6.85;4.00;;;;;;;2.71;74.54;94928.41;5012443;28;20063;-80
2023/03/16 11:30:37;;;;;;;8.50;4.05;;;;;;;2.71;73.93;94925.78;5004702;28;20150;-79
2023/03/16 11:33:09;;;;;;;6.97;3.97;;;;;;;2.69;74.26;94919.19;5004289;28;20163;-81
2023/03/16 11:35:34;;;;;;;8.98;4.38;;;;;;;2.70;74.14;94912.91;4994015;28;20428;-81
2023/03/16 11:38:36;;;;;;;6.72;4.60;;;;;;;2.73;75.10;94899.38;5002769;28;20045;-80
2023/03/16 11:41:05;;;;;;;12.70;6.10;;;;;;;2.53;75.16;94867.53;5012630;28;20507;-80
2023/03/16 11:43:55;;;;;;;15.85;5.25;;;;;;;2.83;74.99;94919.72;5012541;28;20477;-80
2023/03/16 11:46:29;;;;;;;11.20;4.32;;;;;;;2.61;74.47;94872.41;5014739;28;20041;-79
2023/03/16 11:49:31;;;;;;;9.20;4.88;;;;;;;2.95;74.60;94910.03;5016849;28;20037;-79